Список аэропортов
Фактическая погода:

23 апреля, 12:30
Температура: +6°C (+3.7*)
Ветер: южный 3 м/с
Давление: *751 мм
разорв. обл.
кучево-дождевые 630 м
Время (МСК)Темп. СВетерВлажностьДавлениеОблачностьОсадки
09:00+7Ю, 5 м/с47%1003 гПаоблачно
10:00+6Ю, 4 м/с57%1002 гПаоблачносл. дождь
11:00+6Ю, 4 м/с58%1003 гПаоблачносл. дождь
12:00+7Ю, 3 м/с55%1003 гПаоблачно
13:00+7ЮЗ, 3 м/с57%1004 гПаоблачно
14:00+7ЮЗ, 3 м/с62%1005 гПаоблачносл. дождь
15:00+6ЮЗ, 4 м/с68%1006 гПаоблачносл. дождь
16:00+6З, 5 м/с77%1006 гПаоблачносл. дождь
17:00+5З, 6 м/с80%1008 гПаоблачносл. дождь
18:00+4З, 5 м/с85%1009 гПас прояснениямисл. дождь
19:00+4ЮЗ, 4 м/с92%1010 гПас прояснениями
20:00+2ЮЗ, 3 м/с96%1011 гПамалооблачно
21:00+2ЮЗ, 3 м/с94%1011 гПас прояснениями
22:00+2ЮЗ, 3 м/с94%1012 гПамалооблачно
23:00+1ЮЗ, 2 м/с95%1013 гПамалооблачно
24 апреля
00:00+1ЮЗ, 2 м/с97%1013 гПамалооблачно
01:000ЮЗ, 2 м/с95%1014 гПас прояснениями
02:00+1ЮЗ, 3 м/с95%1014 гПаоблачно
03:00+1ЮЗ, 3 м/с95%1015 гПаясно
04:000ЮЗ, 2 м/с96%1015 гПаоблачно
05:000ЮЗ, 2 м/с95%1016 гПаоблачно
06:00+2Ю, 3 м/с87%1016 гПаоблачно
07:00+5Ю, 3 м/с75%1015 гПас прояснениями
08:00+9Ю, 4 м/с61%1015 гПаоблачно
09:00+10Ю, 5 м/с58%1015 гПаоблачносл. дождь
10:00+11Ю, 6 м/с54%1015 гПаоблачносл. дождь
11:00+12Ю, 7 м/с55%1014 гПаоблачносл. дождь
12:00+12Ю, 6 м/с56%1013 гПаоблачносл. дождь
13:00+13Ю, 6 м/с52%1013 гПаоблачносл. дождь
14:00+14ЮВ, 7 м/с46%1011 гПаоблачносл. дождь
15:00+15ЮВ, 8 м/с43%1010 гПаоблачно
16:00+14ЮВ, 8 м/с46%1009 гПаоблачно
17:00+14ЮВ, 7 м/с52%1008 гПаоблачносл. дождь
18:00+12ЮВ, 8 м/с68%1007 гПаоблачнодождь
19:00+11ЮВ, 7 м/с77%1007 гПаоблачнодождь
20:00+10Ю, 4 м/с81%1008 гПаоблачнодождь
21:00+10ЮВ, 5 м/с86%1007 гПаоблачнодождь
22:00+10ЮВ, 7 м/с83%1006 гПаоблачно
23:00+10ЮВ, 7 м/с81%1005 гПаоблачно
25 апреля
00:00+9ЮВ, 6 м/с83%1005 гПаоблачно
01:00+9ЮВ, 5 м/с86%1004 гПаоблачно
02:00+8ЮВ, 5 м/с86%1004 гПаоблачносл. дождь
03:00+8Ю, 5 м/с87%1004 гПаоблачнодождь
04:00+8Ю, 5 м/с87%1004 гПаоблачнодождь
05:00+8Ю, 6 м/с86%1003 гПаоблачносл. дождь
06:00+9Ю, 5 м/с89%1004 гПаоблачносл. дождь
07:00+9Ю, 5 м/с89%1004 гПаоблачносл. дождь
08:00+9ЮЗ, 4 м/с83%1005 гПаоблачносл. дождь
09:00+11ЮЗ, 7 м/с72%1006 гПамалооблачно